sensor_id;sensor_type;location;lat;lon;timestamp;pressure;altitude;pressure_sealevel;temperature;humidity
36304;BME280;22335;49.800;8.596;2022-09-21T00:02:19;101362.88;;;17.01;47.03
36304;BME280;22335;49.800;8.596;2022-09-21T00:09:08;101361.03;;;16.97;46.95
36304;BME280;22335;49.800;8.596;2022-09-21T00:15:53;101381.22;;;16.97;46.96
36304;BME280;22335;49.800;8.596;2022-09-21T00:22:39;101324.53;;;16.67;47.13
36304;BME280;22335;49.800;8.596;2022-09-21T00:29:27;101361.44;;;16.90;47.02
36304;BME280;22335;49.800;8.596;2022-09-21T00:36:14;101359.47;;;16.77;46.95
36304;BME280;22335;49.800;8.596;2022-09-21T00:43:11;101363.00;;;16.64;46.89
36304;BME280;22335;49.800;8.596;2022-09-21T00:50:04;101373.41;;;16.53;46.73
36304;BME280;22335;49.800;8.596;2022-09-21T00:56:53;101367.25;;;16.42;46.65
36304;BME280;22335;49.800;8.596;2022-09-21T01:03:43;101363.66;;;16.42;46.83
36304;BME280;22335;49.800;8.596;2022-09-21T01:10:39;101373.38;;;16.39;46.86
36304;BME280;22335;49.800;8.596;2022-09-21T01:17:41;101374.03;;;16.31;46.90
36304;BME280;22335;49.800;8.596;2022-09-21T01:24:47;101386.38;;;16.20;47.18
36304;BME280;22335;49.800;8.596;2022-09-21T01:31:40;101379.06;;;16.10;47.38
36304;BME280;22335;49.800;8.596;2022-09-21T01:38:34;101388.03;;;16.02;47.17
36304;BME280;22335;49.800;8.596;2022-09-21T01:45:26;101386.69;;;15.99;47.35
36304;BME280;22335;49.800;8.596;2022-09-21T01:52:20;101385.31;;;15.97;47.36
36304;BME280;22335;49.800;8.596;2022-09-21T01:59:10;101386.97;;;15.98;47.46
36304;BME280;22335;49.800;8.596;2022-09-21T02:06:00;101357.91;;;15.86;47.50
36304;BME280;22335;49.800;8.596;2022-09-21T02:12:52;101350.00;;;15.80;47.46
36304;BME280;22335;49.800;8.596;2022-09-21T02:19:45;101268.75;;;15.29;47.33
36304;BME280;22335;49.800;8.596;2022-09-21T02:26:40;101380.63;;;15.97;47.49
36304;BME280;22335;49.800;8.596;2022-09-21T02:33:42;101374.28;;;15.97;47.64
36304;BME280;22335;49.800;8.596;2022-09-21T02:40:37;101368.25;;;15.95;47.51
36304;BME280;22335;49.800;8.596;2022-09-21T03:01:17;101379.16;;;15.86;47.32
36304;BME280;22335;49.800;8.596;2022-09-21T03:08:04;101381.22;;;15.75;47.20
36304;BME280;22335;49.800;8.596;2022-09-21T03:14:49;101379.41;;;15.41;46.86
36304;BME280;22335;49.800;8.596;2022-09-21T03:21:38;101384.25;;;15.31;47.06
36304;BME280;22335;49.800;8.596;2022-09-21T03:28:25;101379.53;;;15.31;47.03
36304;BME280;22335;49.800;8.596;2022-09-21T03:35:11;101393.09;;;15.28;47.23
36304;BME280;22335;49.800;8.596;2022-09-21T03:41:59;101395.09;;;15.22;47.07
36304;BME280;22335;49.800;8.596;2022-09-21T03:48:46;101396.78;;;15.18;47.52
36304;BME280;22335;49.800;8.596;2022-09-21T03:55:32;101403.16;;;15.13;47.37
36304;BME280;22335;49.800;8.596;2022-09-21T04:02:20;101401.59;;;15.07;47.52
36304;BME280;22335;49.800;8.596;2022-09-21T04:09:06;101345.44;;;14.74;47.70
36304;BME280;22335;49.800;8.596;2022-09-21T04:15:52;101415.13;;;15.04;47.39
36304;BME280;22335;49.800;8.596;2022-09-21T04:22:40;101350.91;;;14.50;47.55
36304;BME280;22335;49.800;8.596;2022-09-21T04:29:25;101422.47;;;14.84;47.68
36304;BME280;22335;49.800;8.596;2022-09-21T04:36:11;101411.22;;;14.81;47.89
36304;BME280;22335;49.800;8.596;2022-09-21T04:42:59;101406.00;;;14.79;47.62
36304;BME280;22335;49.800;8.596;2022-09-21T04:49:44;101419.81;;;14.74;47.75
36304;BME280;22335;49.800;8.596;2022-09-21T04:56:30;101416.31;;;14.63;47.80
36304;BME280;22335;49.800;8.596;2022-09-21T05:03:18;101419.69;;;14.55;48.24
36304;BME280;22335;49.800;8.596;2022-09-21T05:10:05;101430.69;;;14.55;47.73
36304;BME280;22335;49.800;8.596;2022-09-21T05:16:51;101450.84;;;14.45;47.90
36304;BME280;22335;49.800;8.596;2022-09-21T05:23:40;101447.38;;;14.29;47.99
36304;BME280;22335;49.800;8.596;2022-09-21T05:30:26;101455.94;;;14.23;48.00
36304;BME280;22335;49.800;8.596;2022-09-21T05:37:36;101455.47;;;14.16;48.25
36304;BME280;22335;49.800;8.596;2022-09-21T05:44:28;101460.41;;;14.14;48.20
36304;BME280;22335;49.800;8.596;2022-09-21T05:51:22;101465.38;;;14.12;48.37
36304;BME280;22335;49.800;8.596;2022-09-21T05:58:20;101466.78;;;14.09;48.64
36304;BME280;22335;49.800;8.596;2022-09-21T06:05:15;101470.91;;;14.06;48.52
36304;BME280;22335;49.800;8.596;2022-09-21T06:12:01;101480.25;;;14.05;48.34
36304;BME280;22335;49.800;8.596;2022-09-21T06:18:47;101480.22;;;14.11;48.74
36304;BME280;22335;49.800;8.596;2022-09-21T06:25:35;101476.38;;;14.12;49.07
36304;BME280;22335;49.800;8.596;2022-09-21T06:32:20;101461.28;;;14.09;49.00
36304;BME280;22335;49.800;8.596;2022-09-21T06:39:06;101453.28;;;14.13;49.40
36304;BME280;22335;49.800;8.596;2022-09-21T06:45:55;101489.38;;;14.45;49.62
36304;BME280;22335;49.800;8.596;2022-09-21T06:52:42;101493.72;;;14.62;49.44
36304;BME280;22335;49.800;8.596;2022-09-21T06:59:27;101498.31;;;14.71;49.88
36304;BME280;22335;49.800;8.596;2022-09-21T07:06:16;101504.00;;;14.85;50.05
36304;BME280;22335;49.800;8.596;2022-09-21T07:13:02;101502.72;;;15.07;49.98
36304;BME280;22335;49.800;8.596;2022-09-21T07:19:50;101498.66;;;15.28;50.48
36304;BME280;22335;49.800;8.596;2022-09-21T07:26:38;101505.13;;;15.42;50.32
36304;BME280;22335;49.800;8.596;2022-09-21T07:33:24;101505.28;;;15.51;50.61
36304;BME280;22335;49.800;8.596;2022-09-21T07:40:15;101511.53;;;15.62;50.48
36304;BME280;22335;49.800;8.596;2022-09-21T07:47:08;101499.38;;;15.68;51.16
36304;BME280;22335;49.800;8.596;2022-09-21T07:53:55;101500.75;;;15.89;50.70
36304;BME280;22335;49.800;8.596;2022-09-21T08:00:40;101500.56;;;16.05;51.08
36304;BME280;22335;49.800;8.596;2022-09-21T08:07:28;101497.81;;;16.24;51.10
36304;BME280;22335;49.800;8.596;2022-09-21T08:14:14;101508.94;;;16.56;50.83
36304;BME280;22335;49.800;8.596;2022-09-21T08:21:09;101502.81;;;16.78;50.38
36304;BME280;22335;49.800;8.596;2022-09-21T08:27:59;101504.44;;;16.98;49.96
36304;BME280;22335;49.800;8.596;2022-09-21T08:34:50;101498.03;;;17.17;50.03
36304;BME280;22335;49.800;8.596;2022-09-21T08:41:50;101423.34;;;16.89;49.75
36304;BME280;22335;49.800;8.596;2022-09-21T08:48:55;101487.75;;;17.50;49.36
36304;BME280;22335;49.800;8.596;2022-09-21T08:55:44;101379.88;;;16.95;48.92
36304;BME280;22335;49.800;8.596;2022-09-21T09:02:40;101478.84;;;17.81;48.40
36304;BME280;22335;49.800;8.596;2022-09-21T09:09:51;101478.94;;;18.03;48.09
36304;BME280;22335;49.800;8.596;2022-09-21T09:16:52;101481.38;;;18.18;47.40
36304;BME280;22335;49.800;8.596;2022-09-21T09:23:51;101472.91;;;18.37;46.76
36304;BME280;22335;49.800;8.596;2022-09-21T09:30:41;101468.91;;;18.66;46.82
36304;BME280;22335;49.800;8.596;2022-09-21T09:37:30;101467.34;;;18.96;46.17
36304;BME280;22335;49.800;8.596;2022-09-21T09:44:26;101463.41;;;19.20;45.21
36304;BME280;22335;49.800;8.596;2022-09-21T09:51:31;101458.78;;;19.46;45.28
36304;BME280;22335;49.800;8.596;2022-09-21T09:58:20;101451.09;;;19.74;44.97
36304;BME280;22335;49.800;8.596;2022-09-21T10:05:18;101452.25;;;19.91;44.28
36304;BME280;22335;49.800;8.596;2022-09-21T10:12:17;101442.78;;;20.00;44.21
36304;BME280;22335;49.800;8.596;2022-09-21T10:19:14;101413.53;;;19.94;43.65
36304;BME280;22335;49.800;8.596;2022-09-21T10:26:03;101397.72;;;19.86;43.17
36304;BME280;22335;49.800;8.596;2022-09-21T10:32:56;101439.75;;;20.19;42.77
36304;BME280;22335;49.800;8.596;2022-09-21T10:39:45;101435.66;;;20.25;42.27
36304;BME280;22335;49.800;8.596;2022-09-21T10:46:34;101442.50;;;20.37;42.37
36304;BME280;22335;49.800;8.596;2022-09-21T10:53:25;101434.81;;;20.51;41.72
36304;BME280;22335;49.800;8.596;2022-09-21T11:00:26;101427.31;;;20.60;42.28
36304;BME280;22335;49.800;8.596;2022-09-21T11:07:20;101429.09;;;20.73;41.88
36304;BME280;22335;49.800;8.596;2022-09-21T11:14:18;101420.59;;;20.79;41.30
36304;BME280;22335;49.800;8.596;2022-09-21T11:21:14;101420.75;;;20.82;41.28
36304;BME280;22335;49.800;8.596;2022-09-21T11:28:10;101402.38;;;20.90;41.36
36304;BME280;22335;49.800;8.596;2022-09-21T11:35:28;101407.91;;;21.07;40.91
36304;BME280;22335;49.800;8.596;2022-09-21T11:42:40;101402.59;;;21.23;40.81
36304;BME280;22335;49.800;8.596;2022-09-21T11:49:49;101358.63;;;21.16;40.90
36304;BME280;22335;49.800;8.596;2022-09-21T11:57:09;101387.44;;;21.50;40.82
36304;BME280;22335;49.800;8.596;2022-09-21T12:04:18;101386.63;;;21.50;40.60
36304;BME280;22335;49.800;8.596;2022-09-21T12:11:25;101380.81;;;21.63;41.13
36304;BME280;22335;49.800;8.596;2022-09-21T12:18:23;101375.13;;;21.81;40.69
36304;BME280;22335;49.800;8.596;2022-09-21T12:25:19;101372.06;;;21.95;39.85
36304;BME280;22335;49.800;8.596;2022-09-21T12:32:12;101368.00;;;21.92;39.97
36304;BME280;22335;49.800;8.596;2022-09-21T12:39:11;101368.47;;;21.94;39.80
36304;BME280;22335;49.800;8.596;2022-09-21T12:46:05;101358.38;;;21.90;39.29
36304;BME280;22335;49.800;8.596;2022-09-21T12:52:53;101347.69;;;21.92;39.06
36304;BME280;22335;49.800;8.596;2022-09-21T12:59:51;101340.41;;;21.99;38.64
36304;BME280;22335;49.800;8.596;2022-09-21T13:06:58;101345.91;;;22.08;38.87
36304;BME280;22335;49.800;8.596;2022-09-21T13:14:04;101334.84;;;22.20;38.39
36304;BME280;22335;49.800;8.596;2022-09-21T13:20:52;101332.09;;;22.32;38.18
36304;BME280;22335;49.800;8.596;2022-09-21T13:28:01;101330.31;;;22.49;38.08
36304;BME280;22335;49.800;8.596;2022-09-21T13:34:49;101297.28;;;22.39;37.67
36304;BME280;22335;49.800;8.596;2022-09-21T13:41:37;101310.56;;;22.66;37.76
36304;BME280;22335;49.800;8.596;2022-09-21T13:48:43;101313.63;;;22.73;36.93
36304;BME280;22335;49.800;8.596;2022-09-21T13:55:38;101301.91;;;22.80;36.18
36304;BME280;22335;49.800;8.596;2022-09-21T14:02:32;101297.72;;;22.86;36.34
36304;BME280;22335;49.800;8.596;2022-09-21T14:09:23;101295.78;;;22.99;36.03
36304;BME280;22335;49.800;8.596;2022-09-21T14:16:48;101286.78;;;22.93;36.29
36304;BME280;22335;49.800;8.596;2022-09-21T14:23:38;101284.13;;;23.09;36.49
36304;BME280;22335;49.800;8.596;2022-09-21T14:30:25;101241.09;;;22.61;35.90
36304;BME280;22335;49.800;8.596;2022-09-21T14:37:25;101279.09;;;22.90;35.61
36304;BME280;22335;49.800;8.596;2022-09-21T14:44:21;101271.34;;;22.96;35.16
36304;BME280;22335;49.800;8.596;2022-09-21T14:51:17;101275.75;;;22.97;34.98
36304;BME280;22335;49.800;8.596;2022-09-21T14:58:23;101266.00;;;23.03;34.80
36304;BME280;22335;49.800;8.596;2022-09-21T15:05:25;101256.81;;;23.02;34.63
36304;BME280;22335;49.800;8.596;2022-09-21T15:12:18;101249.25;;;23.03;34.30
36304;BME280;22335;49.800;8.596;2022-09-21T15:19:21;101251.13;;;23.11;34.52
36304;BME280;22335;49.800;8.596;2022-09-21T15:26:14;101247.38;;;23.07;33.92
36304;BME280;22335;49.800;8.596;2022-09-21T15:33:04;101241.25;;;23.01;33.93
36304;BME280;22335;49.800;8.596;2022-09-21T15:39:58;101233.22;;;23.00;33.69
36304;BME280;22335;49.800;8.596;2022-09-21T15:46:50;101243.44;;;23.08;33.40
36304;BME280;22335;49.800;8.596;2022-09-21T15:53:44;101240.44;;;23.01;33.22
36304;BME280;22335;49.800;8.596;2022-09-21T16:00:32;101234.94;;;22.92;33.25
36304;BME280;22335;49.800;8.596;2022-09-21T16:07:30;101172.53;;;22.48;33.18
36304;BME280;22335;49.800;8.596;2022-09-21T16:14:18;101245.19;;;23.00;33.15
36304;BME280;22335;49.800;8.596;2022-09-21T16:21:20;101236.25;;;22.95;33.29
36304;BME280;22335;49.800;8.596;2022-09-21T16:28:33;101248.56;;;22.94;33.35
36304;BME280;22335;49.800;8.596;2022-09-21T16:35:25;101245.44;;;22.95;33.03
36304;BME280;22335;49.800;8.596;2022-09-21T16:42:13;101255.09;;;22.98;32.88
36304;BME280;22335;49.800;8.596;2022-09-21T16:49:02;101257.25;;;22.92;33.33
36304;BME280;22335;49.800;8.596;2022-09-21T16:55:48;101261.19;;;22.91;33.25
36304;BME280;22335;49.800;8.596;2022-09-21T17:02:34;101261.19;;;22.91;33.26
36304;BME280;22335;49.800;8.596;2022-09-21T17:09:30;101258.56;;;22.83;33.71
36304;BME280;22335;49.800;8.596;2022-09-21T17:16:19;101273.91;;;22.89;33.46
36304;BME280;22335;49.800;8.596;2022-09-21T17:23:05;101215.88;;;22.45;33.81
36304;BME280;22335;49.800;8.596;2022-09-21T17:29:53;101269.72;;;22.83;33.68
36304;BME280;22335;49.800;8.596;2022-09-21T17:36:42;101279.47;;;22.76;34.30
36304;BME280;22335;49.800;8.596;2022-09-21T17:43:34;101184.44;;;22.12;34.46
36304;BME280;22335;49.800;8.596;2022-09-21T17:50:27;101271.91;;;22.65;34.47
36304;BME280;22335;49.800;8.596;2022-09-21T17:57:22;101276.75;;;22.55;33.95
36304;BME280;22335;49.800;8.596;2022-09-21T18:04:14;101282.34;;;22.55;34.21
36304;BME280;22335;49.800;8.596;2022-09-21T18:11:13;101288.25;;;22.66;34.29
36304;BME280;22335;49.800;8.596;2022-09-21T18:18:40;101274.28;;;22.42;33.97
36304;BME280;22335;49.800;8.596;2022-09-21T18:25:28;101293.41;;;22.76;34.08
36304;BME280;22335;49.800;8.596;2022-09-21T18:32:40;101296.81;;;22.37;34.52
36304;BME280;22335;49.800;8.596;2022-09-21T18:39:35;101306.44;;;22.27;34.81
36304;BME280;22335;49.800;8.596;2022-09-21T18:46:30;101294.47;;;22.05;35.03
36304;BME280;22335;49.800;8.596;2022-09-21T18:53:25;101312.09;;;21.97;35.25
36304;BME280;22335;49.800;8.596;2022-09-21T19:00:15;101315.84;;;21.80;35.02
36304;BME280;22335;49.800;8.596;2022-09-21T19:07:11;101320.09;;;21.57;35.49
36304;BME280;22335;49.800;8.596;2022-09-21T19:14:13;101326.94;;;21.38;35.95
36304;BME280;22335;49.800;8.596;2022-09-21T19:21:14;101250.00;;;20.75;36.25
36304;BME280;22335;49.800;8.596;2022-09-21T19:28:20;101322.38;;;20.95;36.31
36304;BME280;22335;49.800;8.596;2022-09-21T19:35:24;101321.69;;;20.69;36.31
36304;BME280;22335;49.800;8.596;2022-09-21T19:42:20;101239.78;;;19.93;36.60
36304;BME280;22335;49.800;8.596;2022-09-21T19:49:13;101330.91;;;20.35;36.73
36304;BME280;22335;49.800;8.596;2022-09-21T19:56:08;101324.03;;;20.23;36.62
36304;BME280;22335;49.800;8.596;2022-09-21T20:03:11;101316.38;;;20.12;36.87
36304;BME280;22335;49.800;8.596;2022-09-21T20:10:10;101321.75;;;19.99;36.83
36304;BME280;22335;49.800;8.596;2022-09-21T20:17:15;101315.22;;;19.87;37.24
36304;BME280;22335;49.800;8.596;2022-09-21T20:24:11;101322.41;;;19.70;37.43
36304;BME280;22335;49.800;8.596;2022-09-21T20:31:02;101324.47;;;19.47;37.68
36304;BME280;22335;49.800;8.596;2022-09-21T20:37:51;101318.91;;;19.30;37.56
36304;BME280;22335;49.800;8.596;2022-09-21T20:44:42;101323.25;;;19.13;37.51
36304;BME280;22335;49.800;8.596;2022-09-21T20:51:28;101332.63;;;18.95;37.94
36304;BME280;22335;49.800;8.596;2022-09-21T20:58:17;101314.19;;;18.91;38.38
36304;BME280;22335;49.800;8.596;2022-09-21T21:05:03;101333.44;;;18.87;37.89
36304;BME280;22335;49.800;8.596;2022-09-21T21:11:49;101236.94;;;18.27;38.09
36304;BME280;22335;49.800;8.596;2022-09-21T21:18:39;101320.25;;;18.93;37.61
36304;BME280;22335;49.800;8.596;2022-09-21T21:25:25;101319.41;;;18.61;38.09
36304;BME280;22335;49.800;8.596;2022-09-21T21:32:11;101318.16;;;18.44;38.73
36304;BME280;22335;49.800;8.596;2022-09-21T21:38:59;101307.66;;;18.33;38.71
36304;BME280;22335;49.800;8.596;2022-09-21T21:45:50;101309.56;;;18.24;38.90
36304;BME280;22335;49.800;8.596;2022-09-21T21:52:42;101309.56;;;18.24;38.74
36304;BME280;22335;49.800;8.596;2022-09-21T21:59:31;101301.88;;;18.20;39.27
36304;BME280;22335;49.800;8.596;2022-09-21T22:06:16;101300.78;;;18.22;38.99
36304;BME280;22335;49.800;8.596;2022-09-21T22:13:02;101299.13;;;18.20;39.12
36304;BME280;22335;49.800;8.596;2022-09-21T22:19:51;101216.19;;;17.70;39.29
36304;BME280;22335;49.800;8.596;2022-09-21T22:26:39;101287.69;;;18.13;39.30
36304;BME280;22335;49.800;8.596;2022-09-21T22:33:25;101288.63;;;18.09;39.17
36304;BME280;22335;49.800;8.596;2022-09-21T22:40:16;101283.50;;;18.02;39.40
36304;BME280;22335;49.800;8.596;2022-09-21T22:47:02;101286.63;;;18.01;39.49
36304;BME280;22335;49.800;8.596;2022-09-21T22:53:49;101209.22;;;17.50;39.63
36304;BME280;22335;49.800;8.596;2022-09-21T23:00:37;101291.31;;;18.23;38.72
36304;BME280;22335;49.800;8.596;2022-09-21T23:07:23;101286.28;;;18.02;39.82
36304;BME280;22335;49.800;8.596;2022-09-21T23:14:09;101194.69;;;17.45;40.09
36304;BME280;22335;49.800;8.596;2022-09-21T23:21:00;101276.84;;;17.81;40.02
36304;BME280;22335;49.800;8.596;2022-09-21T23:27:46;101278.13;;;17.97;39.73
36304;BME280;22335;49.800;8.596;2022-09-21T23:34:32;101215.56;;;17.51;39.93
36304;BME280;22335;49.800;8.596;2022-09-21T23:41:21;101263.22;;;17.70;40.34
36304;BME280;22335;49.800;8.596;2022-09-21T23:48:07;101273.13;;;17.49;40.21
36304;BME280;22335;49.800;8.596;2022-09-21T23:54:53;101215.78;;;16.91;40.67
